LFRK/CFR METAR and TAF weather

Enter ICAO airport designator
Station Type Date Time Source
LFRK METAR 2019/06/26 20:30 UTC NOAA

LFRK 262030Z AUTO 02008KT 8000 NSC 17/16 Q1022


Station Type Date Time Source
LFRK Decoded METAR 2019/06/26 20:30 UTC NOAA

Caen, France (LFRK) 49-11N 000-27W 67M
Jun 26, 2019 - 04:30 PM EDT / 2019.06.26 2030 UTC
Wind: from the NNE (020 degrees) at 9 MPH (8 KT):0
Visibility: 4 mile(s):0
Temperature: 62 F (17 C)
Dew Point: 60 F (16 C)
Relative Humidity: 93%
Pressure (altimeter): 30.18 in. Hg (1022 hPa)
ob: LFRK 262030Z AUTO 02008KT 8000 NSC 17/16 Q1022
cycle: 20

Station Type Date Time Source
LFRK TAF UTC NOAA

Error!

Example: see airport list